sensor_id;sensor_type;location;lat;lon;timestamp;pressure;altitude;pressure_sealevel;temperature;humidity
61524;BME280;47393;38.758;-9.164;2022-09-30T00:01:13;100430.28;;;14.07;100.00
61524;BME280;47393;38.758;-9.164;2022-09-30T00:03:26;100420.44;;;13.99;100.00
61524;BME280;47393;38.758;-9.164;2022-09-30T00:05:30;100416.97;;;13.99;100.00
61524;BME280;47393;38.758;-9.164;2022-09-30T00:07:37;100419.59;;;14.27;100.00
61524;BME280;47393;38.758;-9.164;2022-09-30T00:09:37;100411.34;;;14.12;100.00
61524;BME280;47393;38.758;-9.164;2022-09-30T00:11:47;100400.50;;;14.05;100.00
61524;BME280;47393;38.758;-9.164;2022-09-30T00:13:48;100383.50;;;14.08;100.00
61524;BME280;47393;38.758;-9.164;2022-09-30T00:15:50;100389.00;;;13.96;100.00
61524;BME280;47393;38.758;-9.164;2022-09-30T00:18:31;100402.84;;;13.80;100.00
61524;BME280;47393;38.758;-9.164;2022-09-30T00:20:53;100398.78;;;13.86;100.00
61524;BME280;47393;38.758;-9.164;2022-09-30T00:23:16;100398.22;;;13.82;100.00
61524;BME280;47393;38.758;-9.164;2022-09-30T00:25:39;100400.06;;;13.72;100.00
61524;BME280;47393;38.758;-9.164;2022-09-30T00:28:06;100374.06;;;13.77;100.00
61524;BME280;47393;38.758;-9.164;2022-09-30T00:30:27;100363.91;;;13.73;100.00
61524;BME280;47393;38.758;-9.164;2022-09-30T00:33:03;100390.50;;;13.71;100.00
61524;BME280;47393;38.758;-9.164;2022-09-30T00:35:15;100394.88;;;13.53;100.00
61524;BME280;47393;38.758;-9.164;2022-09-30T00:39:42;100407.63;;;13.67;100.00
61524;BME280;47393;38.758;-9.164;2022-09-30T00:41:58;100385.00;;;13.82;100.00
61524;BME280;47393;38.758;-9.164;2022-09-30T00:46:37;100411.22;;;13.76;100.00
61524;BME280;47393;38.758;-9.164;2022-09-30T00:48:48;100397.06;;;13.67;100.00
61524;BME280;47393;38.758;-9.164;2022-09-30T00:50:59;100396.44;;;13.83;100.00
61524;BME280;47393;38.758;-9.164;2022-09-30T00:57:52;100423.19;;;14.08;100.00
61524;BME280;47393;38.758;-9.164;2022-09-30T01:00:02;100388.06;;;14.15;100.00
61524;BME280;47393;38.758;-9.164;2022-09-30T01:02:09;100395.22;;;14.05;100.00
61524;BME280;47393;38.758;-9.164;2022-09-30T01:04:17;100406.81;;;13.94;100.00
61524;BME280;47393;38.758;-9.164;2022-09-30T01:06:22;100405.41;;;14.00;100.00
61524;BME280;47393;38.758;-9.164;2022-09-30T01:08:25;100407.06;;;14.01;100.00
61524;BME280;47393;38.758;-9.164;2022-09-30T01:10:27;100406.63;;;14.06;100.00
61524;BME280;47393;38.758;-9.164;2022-09-30T01:13:02;100399.94;;;14.11;100.00
61524;BME280;47393;38.758;-9.164;2022-09-30T01:15:34;100405.22;;;14.11;100.00
61524;BME280;47393;38.758;-9.164;2022-09-30T01:32:38;100384.53;;;14.25;100.00
61524;BME280;47393;38.758;-9.164;2022-09-30T01:39:47;100386.53;;;14.41;100.00
61524;BME280;47393;38.758;-9.164;2022-09-30T01:44:06;100399.44;;;14.26;100.00
61524;BME280;47393;38.758;-9.164;2022-09-30T01:46:21;100400.41;;;14.25;100.00
61524;BME280;47393;38.758;-9.164;2022-09-30T01:51:16;100398.16;;;14.02;100.00
61524;BME280;47393;38.758;-9.164;2022-09-30T01:53:40;100390.78;;;14.06;100.00
61524;BME280;47393;38.758;-9.164;2022-09-30T01:58:38;100378.44;;;14.24;100.00
61524;BME280;47393;38.758;-9.164;2022-09-30T02:00:56;100386.88;;;14.28;100.00
61524;BME280;47393;38.758;-9.164;2022-09-30T02:03:00;100375.63;;;14.26;100.00
61524;BME280;47393;38.758;-9.164;2022-09-30T02:05:06;100386.47;;;14.23;100.00
61524;BME280;47393;38.758;-9.164;2022-09-30T02:07:12;100379.25;;;14.25;100.00
61524;BME280;47393;38.758;-9.164;2022-09-30T02:09:35;100384.53;;;14.25;100.00
61524;BME280;47393;38.758;-9.164;2022-09-30T02:11:44;100389.81;;;14.25;100.00
61524;BME280;47393;38.758;-9.164;2022-09-30T02:16:31;100380.88;;;14.08;100.00
61524;BME280;47393;38.758;-9.164;2022-09-30T02:18:35;100387.22;;;14.15;100.00
61524;BME280;47393;38.758;-9.164;2022-09-30T02:20:48;100375.13;;;14.12;100.00
61524;BME280;47393;38.758;-9.164;2022-09-30T02:25:48;100383.34;;;14.09;100.00
61524;BME280;47393;38.758;-9.164;2022-09-30T02:27:52;100386.50;;;13.95;100.00
61524;BME280;47393;38.758;-9.164;2022-09-30T02:33:01;100375.47;;;13.72;100.00
61524;BME280;47393;38.758;-9.164;2022-09-30T02:35:05;100385.34;;;13.70;100.00
61524;BME280;47393;38.758;-9.164;2022-09-30T02:37:12;100375.63;;;13.70;100.00
61524;BME280;47393;38.758;-9.164;2022-09-30T02:39:19;100367.69;;;13.70;100.00
61524;BME280;47393;38.758;-9.164;2022-09-30T02:41:25;100381.19;;;13.67;100.00
61524;BME280;47393;38.758;-9.164;2022-09-30T02:43:28;100381.56;;;13.72;100.00
61524;BME280;47393;38.758;-9.164;2022-09-30T02:45:30;100382.94;;;13.76;100.00
61524;BME280;47393;38.758;-9.164;2022-09-30T02:56:30;100385.53;;;13.58;100.00
61524;BME280;47393;38.758;-9.164;2022-09-30T02:58:42;100376.44;;;13.71;100.00
61524;BME280;47393;38.758;-9.164;2022-09-30T03:01:11;100382.97;;;13.66;100.00
61524;BME280;47393;38.758;-9.164;2022-09-30T03:03:45;100376.16;;;13.64;100.00
61524;BME280;47393;38.758;-9.164;2022-09-30T03:05:52;100384.50;;;13.69;100.00
61524;BME280;47393;38.758;-9.164;2022-09-30T03:08:03;100373.94;;;13.69;100.00
61524;BME280;47393;38.758;-9.164;2022-09-30T03:10:35;100370.19;;;13.72;100.00
61524;BME280;47393;38.758;-9.164;2022-09-30T03:13:05;100374.22;;;13.66;100.00
61524;BME280;47393;38.758;-9.164;2022-09-30T03:23:13;100389.03;;;13.49;100.00
61524;BME280;47393;38.758;-9.164;2022-09-30T03:31:27;100390.72;;;13.21;100.00
61524;BME280;47393;38.758;-9.164;2022-09-30T03:34:12;100391.44;;;13.13;100.00
61524;BME280;47393;38.758;-9.164;2022-09-30T03:36:40;100390.56;;;13.32;100.00
61524;BME280;47393;38.758;-9.164;2022-09-30T03:39:02;100380.16;;;13.40;100.00
61524;BME280;47393;38.758;-9.164;2022-09-30T03:43:52;100376.63;;;13.49;100.00
61524;BME280;47393;38.758;-9.164;2022-09-30T03:46:17;100373.19;;;13.39;100.00
61524;BME280;47393;38.758;-9.164;2022-09-30T03:48:36;100373.91;;;13.41;100.00
61524;BME280;47393;38.758;-9.164;2022-09-30T03:50:54;100359.00;;;13.40;100.00
61524;BME280;47393;38.758;-9.164;2022-09-30T03:53:07;100359.50;;;13.54;100.00
61524;BME280;47393;38.758;-9.164;2022-09-30T03:58:04;100357.09;;;13.70;100.00
61524;BME280;47393;38.758;-9.164;2022-09-30T04:00:13;100367.28;;;13.65;100.00
61524;BME280;47393;38.758;-9.164;2022-09-30T04:03:05;100365.59;;;13.64;100.00
61524;BME280;47393;38.758;-9.164;2022-09-30T04:05:38;100364.34;;;13.68;100.00
61524;BME280;47393;38.758;-9.164;2022-09-30T04:07:44;100366.44;;;13.64;100.00
61524;BME280;47393;38.758;-9.164;2022-09-30T04:09:51;100366.41;;;13.74;100.00
61524;BME280;47393;38.758;-9.164;2022-09-30T04:12:03;100366.00;;;13.69;100.00
61524;BME280;47393;38.758;-9.164;2022-09-30T04:14:05;100358.53;;;13.64;100.00
61524;BME280;47393;38.758;-9.164;2022-09-30T04:16:14;100366.31;;;13.66;100.00
61524;BME280;47393;38.758;-9.164;2022-09-30T04:18:19;100369.38;;;13.61;100.00
61524;BME280;47393;38.758;-9.164;2022-09-30T04:23:25;100381.22;;;13.57;100.00
61524;BME280;47393;38.758;-9.164;2022-09-30T04:25:36;100390.38;;;13.63;100.00
61524;BME280;47393;38.758;-9.164;2022-09-30T04:28:09;100393.19;;;13.52;100.00
61524;BME280;47393;38.758;-9.164;2022-09-30T04:30:13;100403.06;;;13.49;100.00
61524;BME280;47393;38.758;-9.164;2022-09-30T04:32:40;100405.47;;;13.43;100.00
61524;BME280;47393;38.758;-9.164;2022-09-30T04:35:16;100413.78;;;13.48;100.00
61524;BME280;47393;38.758;-9.164;2022-09-30T04:37:25;100422.09;;;13.63;100.00
61524;BME280;47393;38.758;-9.164;2022-09-30T04:39:34;100417.88;;;13.80;100.00
61524;BME280;47393;38.758;-9.164;2022-09-30T04:41:44;100418.19;;;13.67;100.00
61524;BME280;47393;38.758;-9.164;2022-09-30T04:43:50;100424.47;;;13.56;100.00
61524;BME280;47393;38.758;-9.164;2022-09-30T04:45:56;100420.00;;;13.57;100.00
61524;BME280;47393;38.758;-9.164;2022-09-30T04:47:58;100412.91;;;13.67;100.00
61524;BME280;47393;38.758;-9.164;2022-09-30T04:50:02;100411.09;;;13.67;100.00
61524;BME280;47393;38.758;-9.164;2022-09-30T04:52:08;100407.06;;;13.63;100.00
61524;BME280;47393;38.758;-9.164;2022-09-30T04:54:09;100407.22;;;13.62;100.00
61524;BME280;47393;38.758;-9.164;2022-09-30T04:56:10;100414.16;;;13.63;100.00
61524;BME280;47393;38.758;-9.164;2022-09-30T04:58:14;100418.59;;;13.62;100.00
61524;BME280;47393;38.758;-9.164;2022-09-30T05:00:25;100420.16;;;13.55;100.00
61524;BME280;47393;38.758;-9.164;2022-09-30T05:02:26;100416.00;;;13.53;100.00
61524;BME280;47393;38.758;-9.164;2022-09-30T05:04:40;100414.22;;;13.43;100.00
61524;BME280;47393;38.758;-9.164;2022-09-30T05:06:44;100419.34;;;13.45;100.00
61524;BME280;47393;38.758;-9.164;2022-09-30T05:08:45;100391.41;;;13.23;100.00
61524;BME280;47393;38.758;-9.164;2022-09-30T05:10:51;100413.50;;;13.51;100.00
61524;BME280;47393;38.758;-9.164;2022-09-30T05:12:52;100424.09;;;13.51;100.00
61524;BME280;47393;38.758;-9.164;2022-09-30T05:14:55;100413.94;;;13.37;100.00
61524;BME280;47393;38.758;-9.164;2022-09-30T05:16:55;100418.78;;;13.31;100.00
61524;BME280;47393;38.758;-9.164;2022-09-30T05:18:56;100422.25;;;13.32;100.00
61524;BME280;47393;38.758;-9.164;2022-09-30T05:21:00;100421.69;;;13.48;98.94
61524;BME280;47393;38.758;-9.164;2022-09-30T05:23:02;100424.59;;;13.64;97.95
61524;BME280;47393;38.758;-9.164;2022-09-30T05:25:08;100430.88;;;13.54;97.88
61524;BME280;47393;38.758;-9.164;2022-09-30T05:27:29;100427.69;;;13.50;98.33
61524;BME280;47393;38.758;-9.164;2022-09-30T05:29:30;100441.59;;;13.42;98.98
61524;BME280;47393;38.758;-9.164;2022-09-30T05:31:34;100444.81;;;13.36;99.46
61524;BME280;47393;38.758;-9.164;2022-09-30T05:33:35;100443.53;;;13.30;100.00
61524;BME280;47393;38.758;-9.164;2022-09-30T05:35:36;100444.66;;;13.28;100.00
61524;BME280;47393;38.758;-9.164;2022-09-30T05:37:39;100444.53;;;13.20;100.00
61524;BME280;47393;38.758;-9.164;2022-09-30T05:39:40;100441.03;;;13.19;100.00
61524;BME280;47393;38.758;-9.164;2022-09-30T05:41:43;100447.31;;;13.08;100.00
61524;BME280;47393;38.758;-9.164;2022-09-30T05:43:44;100445.78;;;13.06;100.00
61524;BME280;47393;38.758;-9.164;2022-09-30T05:45:55;100448.13;;;13.09;100.00
61524;BME280;47393;38.758;-9.164;2022-09-30T05:48:19;100457.88;;;12.98;100.00
61524;BME280;47393;38.758;-9.164;2022-09-30T05:52:50;100463.44;;;13.05;99.92
61524;BME280;47393;38.758;-9.164;2022-09-30T05:55:01;100457.88;;;13.18;99.97
61524;BME280;47393;38.758;-9.164;2022-09-30T05:57:13;100471.34;;;13.15;100.00
61524;BME280;47393;38.758;-9.164;2022-09-30T05:59:20;100481.50;;;13.10;100.00
61524;BME280;47393;38.758;-9.164;2022-09-30T06:01:27;100492.88;;;13.10;100.00
61524;BME280;47393;38.758;-9.164;2022-09-30T06:03:28;100489.81;;;13.15;100.00
61524;BME280;47393;38.758;-9.164;2022-09-30T06:05:29;100490.09;;;13.12;100.00
61524;BME280;47393;38.758;-9.164;2022-09-30T06:07:33;100491.22;;;13.00;100.00
61524;BME280;47393;38.758;-9.164;2022-09-30T06:09:37;100491.22;;;13.00;100.00
61524;BME280;47393;38.758;-9.164;2022-09-30T06:11:43;100482.19;;;13.02;100.00
61524;BME280;47393;38.758;-9.164;2022-09-30T06:13:44;100502.75;;;12.98;100.00
61524;BME280;47393;38.758;-9.164;2022-09-30T06:15:57;100503.03;;;12.95;100.00
61524;BME280;47393;38.758;-9.164;2022-09-30T06:17:59;100521.91;;;12.91;100.00
61524;BME280;47393;38.758;-9.164;2022-09-30T06:20:00;100534.41;;;12.89;100.00
61524;BME280;47393;38.758;-9.164;2022-09-30T06:22:10;100532.59;;;12.89;100.00
61524;BME280;47393;38.758;-9.164;2022-09-30T06:24:11;100537.34;;;12.86;100.00
61524;BME280;47393;38.758;-9.164;2022-09-30T06:26:12;100546.03;;;12.76;100.00
61524;BME280;47393;38.758;-9.164;2022-09-30T06:28:13;100544.78;;;12.71;100.00
61524;BME280;47393;38.758;-9.164;2022-09-30T06:30:14;100543.97;;;12.80;100.00
61524;BME280;47393;38.758;-9.164;2022-09-30T06:32:15;100544.94;;;12.79;100.00
61524;BME280;47393;38.758;-9.164;2022-09-30T06:34:16;100546.19;;;12.75;100.00
61524;BME280;47393;38.758;-9.164;2022-09-30T06:36:20;100544.41;;;12.75;100.00
61524;BME280;47393;38.758;-9.164;2022-09-30T06:38:20;100549.41;;;12.78;100.00
61524;BME280;47393;38.758;-9.164;2022-09-30T06:40:47;100549.94;;;12.82;100.00
61524;BME280;47393;38.758;-9.164;2022-09-30T06:42:48;100549.56;;;12.87;100.00
61524;BME280;47393;38.758;-9.164;2022-09-30T06:44:51;100549.28;;;12.90;100.00
61524;BME280;47393;38.758;-9.164;2022-09-30T06:46:52;100558.88;;;13.01;100.00
61524;BME280;47393;38.758;-9.164;2022-09-30T06:48:59;100546.41;;;13.03;100.00
61524;BME280;47393;38.758;-9.164;2022-09-30T06:51:09;100558.88;;;13.01;100.00
61524;BME280;47393;38.758;-9.164;2022-09-30T06:53:10;100562.66;;;13.08;100.00
61524;BME280;47393;38.758;-9.164;2022-09-30T06:55:17;100561.34;;;13.43;100.00
61524;BME280;47393;38.758;-9.164;2022-09-30T06:57:44;100565.19;;;14.07;97.26
61524;BME280;47393;38.758;-9.164;2022-09-30T06:59:51;100567.53;;;14.85;92.57
61524;BME280;47393;38.758;-9.164;2022-09-30T07:01:52;100573.38;;;15.53;88.91
61524;BME280;47393;38.758;-9.164;2022-09-30T07:04:12;100558.81;;;15.75;86.42
61524;BME280;47393;38.758;-9.164;2022-09-30T07:06:24;100561.56;;;16.36;83.98
61524;BME280;47393;38.758;-9.164;2022-09-30T07:08:51;100562.31;;;16.89;80.53
61524;BME280;47393;38.758;-9.164;2022-09-30T07:11:04;100572.00;;;16.64;80.90
61524;BME280;47393;38.758;-9.164;2022-09-30T07:13:11;100567.78;;;16.53;81.35
61524;BME280;47393;38.758;-9.164;2022-09-30T07:15:18;100569.00;;;17.01;80.21
61524;BME280;47393;38.758;-9.164;2022-09-30T07:17:28;100573.00;;;16.71;80.11
61524;BME280;47393;38.758;-9.164;2022-09-30T07:19:47;100566.53;;;17.24;79.21
61524;BME280;47393;38.758;-9.164;2022-09-30T07:24:36;100551.78;;;17.71;76.59
61524;BME280;47393;38.758;-9.164;2022-09-30T07:26:52;100561.56;;;18.28;74.80
61524;BME280;47393;38.758;-9.164;2022-09-30T07:29:00;100562.31;;;18.93;72.44
61524;BME280;47393;38.758;-9.164;2022-09-30T07:33:28;100583.47;;;18.95;71.21
61524;BME280;47393;38.758;-9.164;2022-09-30T07:35:29;100595.19;;;19.86;68.22
61524;BME280;47393;38.758;-9.164;2022-09-30T07:37:34;100589.91;;;19.55;68.23
61524;BME280;47393;38.758;-9.164;2022-09-30T07:39:35;100597.09;;;19.31;69.39
61524;BME280;47393;38.758;-9.164;2022-09-30T07:41:46;100590.03;;;19.39;68.89
61524;BME280;47393;38.758;-9.164;2022-09-30T07:46:47;100590.38;;;20.50;65.10
61524;BME280;47393;38.758;-9.164;2022-09-30T07:49:14;100593.56;;;21.05;63.04
61524;BME280;47393;38.758;-9.164;2022-09-30T07:51:36;100613.44;;;19.98;65.68
61524;BME280;47393;38.758;-9.164;2022-09-30T07:56:32;100603.38;;;19.85;65.32
61524;BME280;47393;38.758;-9.164;2022-09-30T07:58:48;100606.31;;;19.67;66.15
61524;BME280;47393;38.758;-9.164;2022-09-30T08:03:45;100603.78;;;19.74;65.02
61524;BME280;47393;38.758;-9.164;2022-09-30T08:05:49;100609.88;;;19.59;65.63
61524;BME280;47393;38.758;-9.164;2022-09-30T08:08:11;100598.38;;;20.05;64.57
61524;BME280;47393;38.758;-9.164;2022-09-30T08:10:15;100595.34;;;20.23;63.52
61524;BME280;47393;38.758;-9.164;2022-09-30T08:12:16;100600.06;;;20.51;62.38
61524;BME280;47393;38.758;-9.164;2022-09-30T08:14:18;100591.97;;;20.59;60.47
61524;BME280;47393;38.758;-9.164;2022-09-30T08:16:19;100588.97;;;21.35;58.40
61524;BME280;47393;38.758;-9.164;2022-09-30T08:18:24;100606.22;;;20.51;59.62
61524;BME280;47393;38.758;-9.164;2022-09-30T08:20:33;100611.75;;;20.95;59.19
61524;BME280;47393;38.758;-9.164;2022-09-30T08:22:58;100622.59;;;21.44;56.10
61524;BME280;47393;38.758;-9.164;2022-09-30T08:25:30;100607.88;;;20.97;57.07
61524;BME280;47393;38.758;-9.164;2022-09-30T08:27:43;100610.22;;;20.70;58.25
61524;BME280;47393;38.758;-9.164;2022-09-30T08:29:47;100619.03;;;21.01;56.77
61524;BME280;47393;38.758;-9.164;2022-09-30T08:31:54;100617.66;;;22.13;54.70
61524;BME280;47393;38.758;-9.164;2022-09-30T08:34:13;100623.47;;;21.67;55.29
61524;BME280;47393;38.758;-9.164;2022-09-30T08:36:24;100622.47;;;21.96;54.02
61524;BME280;47393;38.758;-9.164;2022-09-30T08:38:25;100624.91;;;22.83;51.83
61524;BME280;47393;38.758;-9.164;2022-09-30T08:40:49;100638.50;;;23.29;50.58
61524;BME280;47393;38.758;-9.164;2022-09-30T08:42:53;100640.66;;;23.67;48.07
61524;BME280;47393;38.758;-9.164;2022-09-30T08:45:02;100646.34;;;23.24;47.93
61524;BME280;47393;38.758;-9.164;2022-09-30T08:47:26;100648.75;;;23.12;47.09
61524;BME280;47393;38.758;-9.164;2022-09-30T08:49:53;100659.75;;;22.48;48.59
61524;BME280;47393;38.758;-9.164;2022-09-30T08:52:23;100664.09;;;23.19;47.36
61524;BME280;47393;38.758;-9.164;2022-09-30T09:00:59;100700.44;;;21.86;49.11
61524;BME280;47393;38.758;-9.164;2022-09-30T09:03:04;100690.53;;;22.30;47.65
61524;BME280;47393;38.758;-9.164;2022-09-30T09:05:05;100691.72;;;21.41;50.02
61524;BME280;47393;38.758;-9.164;2022-09-30T09:07:12;100700.50;;;23.48;45.51
61524;BME280;47393;38.758;-9.164;2022-09-30T09:09:28;100704.03;;;23.55;44.44
61524;BME280;47393;38.758;-9.164;2022-09-30T09:11:56;100703.72;;;23.92;42.64
61524;BME280;47393;38.758;-9.164;2022-09-30T09:16:24;100704.47;;;23.72;43.77
61524;BME280;47393;38.758;-9.164;2022-09-30T09:18:44;100707.63;;;25.42;40.72
61524;BME280;47393;38.758;-9.164;2022-09-30T09:20:53;100712.69;;;26.27;38.15
61524;BME280;47393;38.758;-9.164;2022-09-30T09:23:01;100714.56;;;25.95;38.49
61524;BME280;47393;38.758;-9.164;2022-09-30T09:25:03;100717.78;;;25.46;39.29
61524;BME280;47393;38.758;-9.164;2022-09-30T09:27:29;100712.31;;;25.01;40.20
61524;BME280;47393;38.758;-9.164;2022-09-30T09:32:16;100718.91;;;23.58;42.63
61524;BME280;47393;38.758;-9.164;2022-09-30T09:47:12;100738.78;;;23.77;40.00
61524;BME280;47393;38.758;-9.164;2022-09-30T09:49:51;100735.53;;;23.95;40.73
61524;BME280;47393;38.758;-9.164;2022-09-30T09:58:19;100736.41;;;22.42;42.49
61524;BME280;47393;38.758;-9.164;2022-09-30T10:00:44;100738.41;;;22.33;42.21
61524;BME280;47393;38.758;-9.164;2022-09-30T10:05:23;100723.47;;;22.24;40.85
61524;BME280;47393;38.758;-9.164;2022-09-30T10:08:16;100730.25;;;22.26;41.02
61524;BME280;47393;38.758;-9.164;2022-09-30T10:10:42;100734.81;;;22.26;40.91
61524;BME280;47393;38.758;-9.164;2022-09-30T10:14:03;100724.81;;;22.35;40.68
61524;BME280;47393;38.758;-9.164;2022-09-30T10:30:54;100747.00;;;25.29;32.84
61524;BME280;47393;38.758;-9.164;2022-09-30T10:33:27;100742.34;;;24.98;34.58
61524;BME280;47393;38.758;-9.164;2022-09-30T10:36:05;100738.59;;;25.05;33.74
61524;BME280;47393;38.758;-9.164;2022-09-30T10:38:10;100747.38;;;24.41;34.28
61524;BME280;47393;38.758;-9.164;2022-09-30T10:40:33;100748.56;;;23.98;35.15
61524;BME280;47393;38.758;-9.164;2022-09-30T10:42:45;100754.16;;;24.03;35.11
61524;BME280;47393;38.758;-9.164;2022-09-30T10:48:14;100753.03;;;23.84;35.15
61524;BME280;47393;38.758;-9.164;2022-09-30T10:50:37;100756.66;;;23.49;35.95
61524;BME280;47393;38.758;-9.164;2022-09-30T10:55:24;100756.19;;;23.88;35.46
61524;BME280;47393;38.758;-9.164;2022-09-30T10:57:39;100754.59;;;24.80;33.83
61524;BME280;47393;38.758;-9.164;2022-09-30T10:59:40;100756.88;;;24.36;34.63
61524;BME280;47393;38.758;-9.164;2022-09-30T11:06:22;100763.91;;;24.58;33.94
61524;BME280;47393;38.758;-9.164;2022-09-30T11:08:40;100755.00;;;24.37;33.95
61524;BME280;47393;38.758;-9.164;2022-09-30T11:13:08;100778.25;;;25.30;31.70
61524;BME280;47393;38.758;-9.164;2022-09-30T11:17:41;100759.34;;;24.05;33.83
61524;BME280;47393;38.758;-9.164;2022-09-30T11:31:35;100751.66;;;24.95;33.11
61524;BME280;47393;38.758;-9.164;2022-09-30T11:36:10;100742.19;;;24.52;32.95
61524;BME280;47393;38.758;-9.164;2022-09-30T11:40:36;100738.31;;;25.27;33.61
61524;BME280;47393;38.758;-9.164;2022-09-30T11:42:46;100729.13;;;26.44;32.32
61524;BME280;47393;38.758;-9.164;2022-09-30T11:44:50;100730.75;;;26.70;31.39
61524;BME280;47393;38.758;-9.164;2022-09-30T11:58:17;100725.03;;;26.85;29.25
61524;BME280;47393;38.758;-9.164;2022-09-30T12:00:41;100726.59;;;26.24;30.84
61524;BME280;47393;38.758;-9.164;2022-09-30T12:05:52;100728.91;;;25.88;31.09
61524;BME280;47393;38.758;-9.164;2022-09-30T12:09:52;100725.78;;;24.94;32.68
61524;BME280;47393;38.758;-9.164;2022-09-30T12:12:03;100722.28;;;24.94;31.54
61524;BME280;47393;38.758;-9.164;2022-09-30T12:14:10;100723.97;;;24.01;33.62
61524;BME280;47393;38.758;-9.164;2022-09-30T12:16:20;100718.28;;;25.16;31.69
61524;BME280;47393;38.758;-9.164;2022-09-30T12:18:38;100713.31;;;23.53;34.42
61524;BME280;47393;38.758;-9.164;2022-09-30T12:21:02;100717.38;;;24.44;32.86
61524;BME280;47393;38.758;-9.164;2022-09-30T12:25:31;100726.91;;;25.77;30.41
61524;BME280;47393;38.758;-9.164;2022-09-30T12:27:43;100719.84;;;27.02;29.29
61524;BME280;47393;38.758;-9.164;2022-09-30T12:30:04;100726.16;;;26.52;30.46
61524;BME280;47393;38.758;-9.164;2022-09-30T12:32:33;100718.75;;;25.90;31.15
61524;BME280;47393;38.758;-9.164;2022-09-30T12:37:05;100721.88;;;27.07;30.47
61524;BME280;47393;38.758;-9.164;2022-09-30T12:42:04;100715.63;;;26.88;30.11
61524;BME280;47393;38.758;-9.164;2022-09-30T12:49:21;100710.56;;;26.54;31.12
61524;BME280;47393;38.758;-9.164;2022-09-30T12:51:40;100701.84;;;27.15;29.90
61524;BME280;47393;38.758;-9.164;2022-09-30T12:53:49;100708.06;;;27.64;28.71
61524;BME280;47393;38.758;-9.164;2022-09-30T12:56:12;100705.50;;;27.39;29.17
61524;BME280;47393;38.758;-9.164;2022-09-30T12:58:24;100707.84;;;27.35;29.84
61524;BME280;47393;38.758;-9.164;2022-09-30T13:00:32;100708.13;;;27.27;29.87
61524;BME280;47393;38.758;-9.164;2022-09-30T13:02:47;100716.88;;;26.67;30.07
61524;BME280;47393;38.758;-9.164;2022-09-30T13:04:49;100701.63;;;26.10;30.48
61524;BME280;47393;38.758;-9.164;2022-09-30T13:07:06;100725.94;;;26.03;30.26
61524;BME280;47393;38.758;-9.164;2022-09-30T13:16:59;100713.03;;;24.76;32.51
61524;BME280;47393;38.758;-9.164;2022-09-30T13:19:00;100715.13;;;24.27;33.99
61524;BME280;47393;38.758;-9.164;2022-09-30T13:21:22;100717.06;;;25.12;32.25
61524;BME280;47393;38.758;-9.164;2022-09-30T13:23:53;100718.66;;;25.20;32.83
61524;BME280;47393;38.758;-9.164;2022-09-30T13:25:54;100721.47;;;24.93;32.81
61524;BME280;47393;38.758;-9.164;2022-09-30T13:28:25;100709.47;;;24.89;32.34
61524;BME280;47393;38.758;-9.164;2022-09-30T13:30:47;100707.84;;;24.68;33.57
61524;BME280;47393;38.758;-9.164;2022-09-30T13:37:39;100712.19;;;24.02;33.66
61524;BME280;47393;38.758;-9.164;2022-09-30T13:40:11;100713.06;;;23.34;34.09
61524;BME280;47393;38.758;-9.164;2022-09-30T13:42:46;100701.59;;;23.12;35.54
61524;BME280;47393;38.758;-9.164;2022-09-30T13:52:27;100697.69;;;22.44;36.39
61524;BME280;47393;38.758;-9.164;2022-09-30T13:54:30;100707.81;;;22.49;36.81
61524;BME280;47393;38.758;-9.164;2022-09-30T13:56:57;100700.69;;;22.63;36.53
61524;BME280;47393;38.758;-9.164;2022-09-30T14:01:40;100696.25;;;22.49;36.66
61524;BME280;47393;38.758;-9.164;2022-09-30T14:06:48;100695.59;;;22.18;36.94
61524;BME280;47393;38.758;-9.164;2022-09-30T14:18:23;100691.97;;;22.04;37.80
61524;BME280;47393;38.758;-9.164;2022-09-30T14:23:13;100693.75;;;21.97;38.04
61524;BME280;47393;38.758;-9.164;2022-09-30T14:25:39;100694.88;;;21.88;38.72
61524;BME280;47393;38.758;-9.164;2022-09-30T14:28:13;100695.47;;;21.62;38.24
61524;BME280;47393;38.758;-9.164;2022-09-30T14:40:22;100679.59;;;21.82;37.78
61524;BME280;47393;38.758;-9.164;2022-09-30T14:43:10;100688.75;;;21.51;38.50
61524;BME280;47393;38.758;-9.164;2022-09-30T14:45:17;100696.06;;;21.27;38.72
61524;BME280;47393;38.758;-9.164;2022-09-30T14:47:24;100687.09;;;21.35;39.21
61524;BME280;47393;38.758;-9.164;2022-09-30T14:49:49;100684.41;;;20.83;39.57
61524;BME280;47393;38.758;-9.164;2022-09-30T14:51:50;100682.34;;;21.00;39.15
61524;BME280;47393;38.758;-9.164;2022-09-30T14:53:54;100675.81;;;21.18;39.13
61524;BME280;47393;38.758;-9.164;2022-09-30T14:55:57;100689.66;;;21.06;39.23
61524;BME280;47393;38.758;-9.164;2022-09-30T15:00:25;100678.84;;;21.15;38.31
61524;BME280;47393;38.758;-9.164;2022-09-30T15:02:27;100676.47;;;21.05;38.69
61524;BME280;47393;38.758;-9.164;2022-09-30T15:04:30;100688.53;;;21.16;37.71
61524;BME280;47393;38.758;-9.164;2022-09-30T15:06:34;100677.84;;;21.01;38.24
61524;BME280;47393;38.758;-9.164;2022-09-30T15:08:38;100679.41;;;21.10;37.55
61524;BME280;47393;38.758;-9.164;2022-09-30T15:10:44;100684.19;;;21.15;37.94
61524;BME280;47393;38.758;-9.164;2022-09-30T15:12:46;100679.50;;;21.02;37.95
61524;BME280;47393;38.758;-9.164;2022-09-30T15:14:48;100683.22;;;21.01;37.82
61524;BME280;47393;38.758;-9.164;2022-09-30T15:16:50;100692.34;;;21.06;37.50
61524;BME280;47393;38.758;-9.164;2022-09-30T15:18:51;100689.75;;;20.98;37.75
61524;BME280;47393;38.758;-9.164;2022-09-30T15:20:53;100695.47;;;20.95;37.65
61524;BME280;47393;38.758;-9.164;2022-09-30T15:22:56;100709.13;;;20.70;37.43
61524;BME280;47393;38.758;-9.164;2022-09-30T15:24:58;100698.09;;;20.65;37.75
61524;BME280;47393;38.758;-9.164;2022-09-30T15:27:29;100699.03;;;20.87;37.43